createdAt,value
2022-12-14T00:02:19.954Z,100470.47
2022-12-14T00:05:05.952Z,100470.50
2022-12-14T00:07:51.595Z,100469.69
2022-12-14T00:10:38.276Z,100474.78
2022-12-14T00:13:23.823Z,100472.09
2022-12-14T00:16:13.063Z,100456.66
2022-12-14T00:19:00.347Z,100464.41
2022-12-14T00:21:46.107Z,100468.00
2022-12-14T00:24:31.375Z,100463.84
2022-12-14T00:27:16.816Z,100470.78
2022-12-14T00:30:02.297Z,100466.53
2022-12-14T00:32:48.190Z,100453.69
2022-12-14T00:35:33.421Z,100465.75
2022-12-14T00:38:18.763Z,100466.75
2022-12-14T00:41:04.046Z,100468.50
2022-12-14T00:43:49.971Z,100465.09
2022-12-14T00:46:35.388Z,100467.81
2022-12-14T00:49:20.768Z,100469.59
2022-12-14T00:52:06.708Z,100466.16
2022-12-14T00:54:52.085Z,100470.41
2022-12-14T00:57:37.603Z,100465.25
2022-12-14T01:00:22.813Z,100463.44
2022-12-14T01:03:08.605Z,100472.84
2022-12-14T01:05:54.556Z,100470.09
2022-12-14T01:08:39.820Z,100470.81
2022-12-14T01:11:25.471Z,100476.63
2022-12-14T01:14:13.092Z,100472.22
2022-12-14T01:16:58.387Z,100481.28
2022-12-14T01:19:44.271Z,100476.75
2022-12-14T01:22:34.705Z,100480.69
2022-12-14T01:25:19.899Z,100479.53
2022-12-14T01:28:05.425Z,100481.06
2022-12-14T01:30:50.672Z,100481.63
2022-12-14T01:33:36.762Z,100490.75
2022-12-14T01:36:24.683Z,100490.59
2022-12-14T01:39:15.686Z,100496.41
2022-12-14T01:42:00.948Z,100498.81
2022-12-14T01:44:52.851Z,100497.75
2022-12-14T01:47:43.077Z,100503.53
2022-12-14T01:50:28.630Z,100505.78
2022-12-14T01:53:19.638Z,100505.69
2022-12-14T01:56:05.428Z,100509.78
2022-12-14T01:58:50.955Z,100510.53
2022-12-14T02:01:37.128Z,100521.50
2022-12-14T02:04:22.900Z,100522.31
2022-12-14T02:07:10.032Z,100524.97
2022-12-14T02:09:58.724Z,100521.69
2022-12-14T02:12:51.110Z,100530.28
2022-12-14T02:15:38.949Z,100532.69
2022-12-14T02:18:28.082Z,100530.16
2022-12-14T02:21:22.694Z,100531.97
2022-12-14T02:24:38.282Z,100527.72
2022-12-14T02:27:44.967Z,100527.63
2022-12-14T02:30:37.422Z,100533.88
2022-12-14T02:33:57.392Z,100522.09
2022-12-14T02:36:58.136Z,100531.63
2022-12-14T02:40:04.663Z,100522.06
2022-12-14T02:43:08.338Z,100529.66
2022-12-14T02:46:15.746Z,100519.44
2022-12-14T02:49:14.758Z,100532.28
2022-12-14T02:52:25.726Z,100531.44
2022-12-14T02:55:26.682Z,100528.78
2022-12-14T02:58:20.892Z,100517.69
2022-12-14T03:01:12.092Z,100519.59
2022-12-14T03:03:57.869Z,100516.91
2022-12-14T03:06:58.119Z,100527.78
2022-12-14T03:09:43.818Z,100521.00
2022-12-14T03:12:29.100Z,100524.41
2022-12-14T03:15:17.788Z,100524.44
2022-12-14T03:18:07.744Z,100525.25
2022-12-14T03:20:56.170Z,100521.97
2022-12-14T03:23:47.022Z,100517.88
2022-12-14T03:26:50.348Z,100522.47
2022-12-14T03:29:50.019Z,100521.72
2022-12-14T03:32:40.628Z,100519.03
2022-12-14T03:35:36.579Z,100525.78
2022-12-14T03:38:49.381Z,100516.34
2022-12-14T03:41:54.743Z,100524.97
2022-12-14T03:44:52.611Z,100517.28
2022-12-14T03:48:00.332Z,100522.38
2022-12-14T03:50:53.263Z,100530.06
2022-12-14T03:53:45.390Z,100524.09
2022-12-14T03:56:53.943Z,100520.81
2022-12-14T03:59:49.328Z,100527.63
2022-12-14T04:02:51.784Z,100523.38
2022-12-14T04:05:49.121Z,100531.22
2022-12-14T04:08:42.581Z,100524.50
2022-12-14T04:11:53.579Z,100536.66
2022-12-14T04:15:05.525Z,100528.97
2022-12-14T04:18:11.639Z,100531.66
2022-12-14T04:21:03.690Z,100536.00
2022-12-14T04:24:15.632Z,100539.56
2022-12-14T04:27:11.786Z,100535.19
2022-12-14T04:29:59.387Z,100544.75
2022-12-14T04:32:51.757Z,100537.91
2022-12-14T04:35:41.356Z,100537.81
2022-12-14T04:38:34.989Z,100539.44
2022-12-14T04:41:25.054Z,100544.22
2022-12-14T04:44:20.136Z,100545.22
2022-12-14T04:47:09.900Z,100545.94
2022-12-14T04:50:15.306Z,100545.03
2022-12-14T04:53:11.172Z,100546.59
2022-12-14T04:56:19.042Z,100552.41
2022-12-14T04:59:04.728Z,100555.06
2022-12-14T05:01:59.716Z,100557.03
2022-12-14T05:05:07.207Z,100550.44
2022-12-14T05:08:29.895Z,100549.44
2022-12-14T05:14:51.257Z,100553.59
2022-12-14T05:17:38.673Z,100552.03
2022-12-14T05:20:24.632Z,100545.44
2022-12-14T05:23:09.922Z,100543.75
2022-12-14T05:25:55.260Z,100553.22
2022-12-14T05:28:44.659Z,100550.75
2022-12-14T05:31:32.887Z,100552.41
2022-12-14T05:34:18.589Z,100552.28
2022-12-14T05:37:04.311Z,100557.56
2022-12-14T05:39:49.925Z,100555.91
2022-12-14T05:42:38.242Z,100558.25
2022-12-14T05:45:28.501Z,100563.34
2022-12-14T05:48:13.808Z,100563.44
2022-12-14T05:51:10.332Z,100562.03
2022-12-14T05:53:57.242Z,100561.47
2022-12-14T05:56:42.388Z,100566.72
2022-12-14T05:59:27.896Z,100570.34
2022-12-14T06:02:13.339Z,100564.38
2022-12-14T06:04:59.089Z,100564.41
2022-12-14T06:07:44.621Z,100569.59
2022-12-14T06:10:30.119Z,100564.38
2022-12-14T06:13:15.677Z,100564.16
2022-12-14T06:16:28.349Z,100578.59
2022-12-14T06:19:15.051Z,100573.44
2022-12-14T06:22:01.327Z,100570.91
2022-12-14T06:24:46.867Z,100581.06
2022-12-14T06:27:32.731Z,100588.53
2022-12-14T06:30:18.326Z,100581.50
2022-12-14T06:33:03.861Z,100582.31
2022-12-14T06:35:49.252Z,100573.50
2022-12-14T06:38:35.720Z,100574.97
2022-12-14T06:41:22.039Z,100582.53
2022-12-14T06:44:11.075Z,100577.38
2022-12-14T06:46:56.880Z,100578.38
2022-12-14T06:49:42.275Z,100575.69
2022-12-14T06:52:27.684Z,100579.06
2022-12-14T06:55:13.341Z,100574.50
2022-12-14T06:57:58.916Z,100573.69
2022-12-14T07:00:44.664Z,100580.28
2022-12-14T07:03:30.541Z,100590.69
2022-12-14T07:06:16.747Z,100588.97
2022-12-14T07:09:02.743Z,100589.88
2022-12-14T07:11:51.355Z,100592.50
2022-12-14T07:14:36.698Z,100592.41
2022-12-14T07:17:22.518Z,100595.06
2022-12-14T07:20:09.448Z,100595.16
2022-12-14T07:22:54.644Z,100602.09
2022-12-14T07:25:39.987Z,100602.28
2022-12-14T07:28:25.267Z,100600.78
2022-12-14T07:31:14.157Z,100595.88
2022-12-14T07:34:00.382Z,100608.78
2022-12-14T07:36:48.933Z,100601.09
2022-12-14T07:39:34.225Z,100611.25
2022-12-14T07:42:19.657Z,100621.59
2022-12-14T07:45:06.332Z,100622.53
2022-12-14T07:47:51.902Z,100617.53
2022-12-14T07:50:37.384Z,100624.53
2022-12-14T07:53:22.721Z,100625.44
2022-12-14T07:56:14.496Z,100631.44
2022-12-14T07:59:01.683Z,100636.53
2022-12-14T08:01:47.216Z,100637.44
2022-12-14T08:04:34.592Z,100636.50
2022-12-14T08:07:20.333Z,100637.38
2022-12-14T08:10:06.279Z,100645.13
2022-12-14T08:12:51.719Z,100651.06
2022-12-14T08:15:38.678Z,100657.94
2022-12-14T08:18:24.434Z,100652.63
2022-12-14T08:21:11.991Z,100655.94
2022-12-14T08:23:58.031Z,100660.16
2022-12-14T08:26:49.016Z,100663.41
2022-12-14T08:29:35.249Z,100668.38
2022-12-14T08:32:20.745Z,100669.03
2022-12-14T08:35:06.677Z,100671.47
2022-12-14T08:37:52.713Z,100671.47
2022-12-14T08:40:39.466Z,100673.19
2022-12-14T08:43:25.241Z,100678.41
2022-12-14T08:46:10.942Z,100682.66
2022-12-14T08:48:56.978Z,100690.34
2022-12-14T08:51:42.645Z,100690.34
2022-12-14T08:54:28.135Z,100700.69
2022-12-14T08:57:13.515Z,100698.28
2022-12-14T09:00:01.802Z,100701.00
2022-12-14T09:02:50.655Z,100695.91
2022-12-14T09:05:35.961Z,100702.94
2022-12-14T09:08:22.332Z,100706.44
2022-12-14T09:11:12.734Z,100707.47
2022-12-14T09:13:58.384Z,100713.72
2022-12-14T09:16:44.019Z,100716.59
2022-12-14T09:19:29.817Z,100710.81
2022-12-14T09:22:15.374Z,100708.56
2022-12-14T09:25:01.120Z,100716.47
2022-12-14T09:27:46.676Z,100718.31
2022-12-14T09:30:32.117Z,100722.72
2022-12-14T09:33:17.411Z,100727.25
2022-12-14T09:36:05.748Z,100730.78
2022-12-14T09:38:52.824Z,100735.44
2022-12-14T09:42:06.024Z,100733.53
2022-12-14T09:45:21.979Z,100738.59
2022-12-14T09:48:17.121Z,100740.25
2022-12-14T09:51:03.295Z,100751.31
2022-12-14T09:53:56.754Z,100758.94
2022-12-14T09:56:46.558Z,100757.78
2022-12-14T09:59:34.110Z,100752.53
2022-12-14T10:02:34.927Z,100760.19
2022-12-14T10:05:47.930Z,100766.25
2022-12-14T10:08:44.728Z,100767.91
2022-12-14T10:11:47.892Z,100774.78
2022-12-14T10:14:44.429Z,100776.56
2022-12-14T10:17:42.369Z,100781.78
2022-12-14T10:20:37.499Z,100776.59
2022-12-14T10:23:26.196Z,100785.06
2022-12-14T10:26:18.791Z,100783.31
2022-12-14T10:29:31.414Z,100782.41
2022-12-14T10:32:22.797Z,100791.97
2022-12-14T10:35:20.316Z,100793.94
2022-12-14T10:38:17.787Z,100799.38
2022-12-14T10:41:26.787Z,100802.88
2022-12-14T10:44:37.477Z,100804.47
2022-12-14T10:47:46.736Z,100799.31
2022-12-14T10:51:17.193Z,100801.91
2022-12-14T10:54:28.607Z,100801.72
2022-12-14T10:57:19.664Z,100800.59
2022-12-14T11:00:18.460Z,100804.69
2022-12-14T11:03:14.711Z,100802.72
2022-12-14T11:06:10.018Z,100802.56
2022-12-14T11:08:55.820Z,100805.03
2022-12-14T11:11:41.849Z,100806.88
2022-12-14T11:14:27.957Z,100804.78
2022-12-14T11:17:35.043Z,100805.31
2022-12-14T11:20:25.429Z,100814.50
2022-12-14T11:23:38.495Z,100809.06
2022-12-14T11:26:38.106Z,100819.00
2022-12-14T11:29:31.981Z,100816.81
2022-12-14T11:32:22.405Z,100817.91
2022-12-14T11:35:17.473Z,100810.84
2022-12-14T11:38:03.556Z,100818.28
2022-12-14T11:40:48.914Z,100828.22
2022-12-14T11:43:35.233Z,100827.97
2022-12-14T11:46:20.887Z,100815.72
2022-12-14T11:49:24.428Z,100824.97
2022-12-14T11:52:18.429Z,100827.31
2022-12-14T11:55:14.231Z,100826.28
2022-12-14T11:58:00.818Z,100825.19
2022-12-14T12:00:55.760Z,100828.63
2022-12-14T12:03:48.521Z,100821.03
2022-12-14T12:06:34.277Z,100821.13
2022-12-14T12:09:30.657Z,100822.41
2022-12-14T12:12:21.812Z,100820.63
2022-12-14T12:15:17.944Z,100812.00
2022-12-14T12:18:17.205Z,100803.88
2022-12-14T12:21:08.878Z,100808.34
2022-12-14T12:24:12.972Z,100803.06
2022-12-14T12:27:02.691Z,100797.00
2022-12-14T12:30:29.809Z,100800.47
2022-12-14T12:33:34.580Z,100796.38
2022-12-14T12:36:24.320Z,100805.16
2022-12-14T12:39:16.433Z,100807.06
2022-12-14T12:42:34.369Z,100812.25
2022-12-14T12:45:27.555Z,100815.66
2022-12-14T12:48:21.720Z,100821.03
2022-12-14T12:51:13.419Z,100813.41
2022-12-14T12:54:24.778Z,100815.03
2022-12-14T12:57:12.481Z,100817.63
2022-12-14T12:59:59.623Z,100810.44
2022-12-14T13:02:51.826Z,100819.09
2022-12-14T13:05:46.622Z,100823.38
2022-12-14T13:08:39.472Z,100818.28
2022-12-14T13:11:30.274Z,100824.44
2022-12-14T13:14:34.011Z,100813.28
2022-12-14T13:17:28.905Z,100823.69
2022-12-14T13:20:30.624Z,100821.34
2022-12-14T13:23:43.628Z,100829.16
2022-12-14T13:26:58.327Z,100824.03
2022-12-14T13:30:09.512Z,100830.06
2022-12-14T13:33:03.815Z,100830.72
2022-12-14T13:36:08.404Z,100834.75
2022-12-14T13:39:09.075Z,100836.97
2022-12-14T13:41:59.995Z,100835.88
2022-12-14T13:45:04.431Z,100839.25
2022-12-14T13:47:54.592Z,100839.28
2022-12-14T13:50:54.225Z,100843.66
2022-12-14T13:53:50.243Z,100833.34
2022-12-14T13:56:39.600Z,100844.31
2022-12-14T13:59:24.920Z,100850.97
2022-12-14T14:02:28.853Z,100858.41
2022-12-14T14:05:20.360Z,100853.94
2022-12-14T14:08:33.275Z,100857.19
2022-12-14T14:11:37.090Z,100845.09
2022-12-14T14:14:47.575Z,100853.72
2022-12-14T14:17:40.130Z,100853.69
2022-12-14T14:20:40.926Z,100853.59
2022-12-14T14:23:32.398Z,100853.63
2022-12-14T14:26:26.828Z,100855.41
2022-12-14T14:29:23.611Z,100850.34
2022-12-14T14:32:27.938Z,100860.00
2022-12-14T14:35:37.911Z,100846.44
2022-12-14T14:38:32.584Z,100855.16
2022-12-14T14:41:24.748Z,100843.75
2022-12-14T14:44:21.683Z,100845.09
2022-12-14T14:47:35.853Z,100850.88
2022-12-14T14:50:25.911Z,100862.69
2022-12-14T14:53:19.017Z,100859.19
2022-12-14T14:56:12.430Z,100865.78
2022-12-14T14:59:19.440Z,100872.47
2022-12-14T15:02:30.467Z,100877.31
2022-12-14T15:08:40.608Z,100890.94
2022-12-14T15:11:29.854Z,100887.88
2022-12-14T15:14:18.065Z,100902.69
2022-12-14T15:17:18.895Z,100896.34
2022-12-14T15:20:29.109Z,100905.19
2022-12-14T15:23:15.633Z,100909.00
2022-12-14T15:26:03.999Z,100926.03
2022-12-14T15:28:52.743Z,100925.16
2022-12-14T15:31:42.913Z,100926.03
2022-12-14T15:34:28.680Z,100927.81
2022-12-14T15:37:28.032Z,100921.75
2022-12-14T15:40:23.151Z,100927.81
2022-12-14T15:43:20.186Z,100935.50
2022-12-14T15:46:23.769Z,100932.03
2022-12-14T15:49:23.254Z,100936.28
2022-12-14T15:52:10.997Z,100940.47
2022-12-14T15:54:58.252Z,100937.88
2022-12-14T15:57:43.995Z,100943.13
2022-12-14T16:00:29.847Z,100942.28
2022-12-14T16:03:37.932Z,100942.34
2022-12-14T16:06:26.271Z,100940.59
2022-12-14T16:09:21.662Z,100936.31
2022-12-14T16:12:16.752Z,100929.38
2022-12-14T16:15:05.398Z,100943.13
2022-12-14T16:17:59.240Z,100937.06
2022-12-14T16:21:01.693Z,100923.28
2022-12-14T16:23:46.957Z,100930.13
2022-12-14T16:26:38.016Z,100938.56
2022-12-14T16:29:28.742Z,100941.13
2022-12-14T16:32:16.223Z,100940.94
2022-12-14T16:35:02.593Z,100940.88
2022-12-14T16:37:51.224Z,100944.13
2022-12-14T16:40:59.390Z,100946.59
2022-12-14T16:43:55.667Z,100949.78
2022-12-14T16:46:43.093Z,100947.78
2022-12-14T16:49:35.795Z,100951.84
2022-12-14T16:52:35.694Z,100954.84
2022-12-14T16:55:26.417Z,100957.84
2022-12-14T16:58:18.134Z,100953.09
2022-12-14T17:01:09.596Z,100953.47
2022-12-14T17:04:05.497Z,100958.97
2022-12-14T17:06:56.159Z,100963.56
2022-12-14T17:09:41.558Z,100963.19
2022-12-14T17:12:27.252Z,100958.59
2022-12-14T17:15:15.003Z,100957.38
2022-12-14T17:18:04.015Z,100963.94
2022-12-14T17:20:49.286Z,100958.59
2022-12-14T17:23:39.151Z,100958.44
2022-12-14T17:26:31.913Z,100960.03
2022-12-14T17:29:24.012Z,100953.94
2022-12-14T17:32:12.680Z,100948.78
2022-12-14T17:34:59.592Z,100955.44
2022-12-14T17:37:45.024Z,100953.41
2022-12-14T17:40:30.412Z,100957.34
2022-12-14T17:43:20.982Z,100958.84
2022-12-14T17:46:06.390Z,100960.38
2022-12-14T17:48:52.451Z,100962.28
2022-12-14T17:51:42.138Z,100966.31
2022-12-14T17:54:29.241Z,100964.72
2022-12-14T17:57:26.026Z,100963.75
2022-12-14T18:00:50.666Z,100967.66
2022-12-14T18:03:36.875Z,100975.03
2022-12-14T18:06:22.774Z,100966.34
2022-12-14T18:09:09.113Z,100971.41
2022-12-14T18:12:22.114Z,100973.00
2022-12-14T18:15:00.075Z,100972.72
2022-12-14T18:17:45.435Z,100975.88
2022-12-14T18:20:36.015Z,100977.88
2022-12-14T18:23:22.140Z,100978.47
2022-12-14T18:26:07.516Z,100982.53
2022-12-14T18:28:55.359Z,100987.44
2022-12-14T18:31:41.016Z,100993.28
2022-12-14T18:34:26.494Z,100981.97
2022-12-14T18:37:11.890Z,100985.97
2022-12-14T18:39:57.152Z,100979.97
2022-12-14T18:42:43.486Z,100979.84
2022-12-14T18:45:32.670Z,100984.69
2022-12-14T18:48:18.405Z,100987.25
2022-12-14T18:51:04.536Z,100977.91
2022-12-14T18:53:54.744Z,100989.81
2022-12-14T18:56:43.452Z,100986.25
2022-12-14T18:59:28.643Z,100992.94
2022-12-14T19:02:17.378Z,100993.06
2022-12-14T19:05:04.542Z,100998.06
2022-12-14T19:07:50.008Z,101001.25
2022-12-14T19:10:35.975Z,101000.13
2022-12-14T19:13:26.363Z,101007.94
2022-12-14T19:16:12.650Z,101013.00
2022-12-14T19:18:58.348Z,101023.06
2022-12-14T19:21:43.967Z,101022.84
2022-12-14T19:24:29.418Z,101024.28
2022-12-14T19:27:14.738Z,101035.09
2022-12-14T19:30:00.166Z,101027.97
2022-12-14T19:32:45.824Z,101034.84
2022-12-14T19:35:34.527Z,101037.34
2022-12-14T19:38:20.072Z,101030.28
2022-12-14T19:41:12.029Z,101030.84
2022-12-14T19:43:58.039Z,101042.78
2022-12-14T19:46:43.585Z,101042.06
2022-12-14T19:49:29.148Z,101047.97
2022-12-14T19:52:14.463Z,101029.97
2022-12-14T19:55:01.103Z,101044.44
2022-12-14T19:57:46.415Z,101045.50
2022-12-14T20:00:31.956Z,101055.72
2022-12-14T20:03:17.890Z,101053.41
2022-12-14T20:06:04.770Z,101051.75
2022-12-14T20:08:50.362Z,101047.09
2022-12-14T20:11:36.327Z,101048.69
2022-12-14T20:14:22.037Z,101048.53
2022-12-14T20:17:11.892Z,101056.13
2022-12-14T20:19:57.764Z,101050.94
2022-12-14T20:22:43.308Z,101057.53
2022-12-14T20:25:28.702Z,101054.91
2022-12-14T20:28:14.375Z,101048.75
2022-12-14T20:31:01.380Z,101056.44
2022-12-14T20:33:46.850Z,101051.31
2022-12-14T20:36:32.770Z,101056.44
2022-12-14T20:39:17.937Z,101056.44
2022-12-14T20:42:03.386Z,101049.63
2022-12-14T20:44:49.290Z,101054.75
2022-12-14T20:47:34.848Z,101052.03
2022-12-14T20:50:20.564Z,101057.00
2022-12-14T20:53:06.727Z,101051.56
2022-12-14T20:55:52.194Z,101060.81
2022-12-14T20:58:37.603Z,101058.16
2022-12-14T21:01:23.175Z,101061.59
2022-12-14T21:04:09.622Z,101063.44
2022-12-14T21:06:55.193Z,101075.34
2022-12-14T21:09:40.716Z,101077.00
2022-12-14T21:12:26.141Z,101082.78
2022-12-14T21:15:11.743Z,101081.72
2022-12-14T21:17:57.137Z,101085.00
2022-12-14T21:20:42.642Z,101085.72
2022-12-14T21:23:28.323Z,101083.16
2022-12-14T21:26:14.343Z,101087.31
2022-12-14T21:28:59.758Z,101091.47
2022-12-14T21:31:46.623Z,101091.38
2022-12-14T21:34:32.990Z,101093.03
2022-12-14T21:37:19.322Z,101091.31
2022-12-14T21:40:05.642Z,101082.81
2022-12-14T21:42:51.399Z,101080.41
2022-12-14T21:45:36.849Z,101082.91
2022-12-14T21:48:22.161Z,101088.09
2022-12-14T21:51:17.545Z,101093.13
2022-12-14T21:54:03.613Z,101083.88
2022-12-14T21:57:07.579Z,101091.72
2022-12-14T21:59:53.090Z,101095.13
2022-12-14T22:02:40.242Z,101098.84
2022-12-14T22:05:25.545Z,101094.59
2022-12-14T22:08:10.964Z,101092.03
2022-12-14T22:11:02.350Z,101099.63
2022-12-14T22:13:47.740Z,101097.00
2022-12-14T22:16:34.309Z,101099.47
2022-12-14T22:19:23.243Z,101098.91
2022-12-14T22:22:14.107Z,101096.53
2022-12-14T22:24:59.937Z,101093.19
2022-12-14T22:27:49.564Z,101094.06
2022-12-14T22:30:35.376Z,101098.22
2022-12-14T22:33:20.770Z,101104.19
2022-12-14T22:36:06.322Z,101098.91
2022-12-14T22:38:52.297Z,101098.84
2022-12-14T22:41:38.552Z,101097.97
2022-12-14T22:44:23.905Z,101106.59
2022-12-14T22:47:09.196Z,101102.88
2022-12-14T22:49:54.705Z,101101.84
2022-12-14T22:52:40.464Z,101100.09
2022-12-14T22:55:28.564Z,101105.03
2022-12-14T22:58:16.027Z,101112.00
2022-12-14T23:01:01.869Z,101101.16
2022-12-14T23:03:47.605Z,101107.91
2022-12-14T23:06:33.832Z,101108.09
2022-12-14T23:09:37.964Z,101106.34
2022-12-14T23:12:42.265Z,101106.34
2022-12-14T23:15:46.357Z,101104.66
2022-12-14T23:18:50.410Z,101106.50
2022-12-14T23:21:57.577Z,101106.34
2022-12-14T23:25:01.617Z,101099.47
2022-12-14T23:28:06.047Z,101103.44
2022-12-14T23:31:10.881Z,101095.13
2022-12-14T23:34:14.990Z,101098.44
2022-12-14T23:37:20.667Z,101112.69
2022-12-14T23:40:25.260Z,101115.09
2022-12-14T23:43:35.315Z,101106.63
2022-12-14T23:46:39.383Z,101102.06
2022-12-14T23:49:43.592Z,101105.31
2022-12-14T23:52:47.751Z,101115.38
2022-12-14T23:55:52.005Z,101109.91
2022-12-14T23:58:55.970Z,101121.13
